Prescott, Arizona
Current Conditions -  °F | °C
As of 9:53 AM on Thursday 18 Dec 2014 (Local Time) from KPRC Reporting Station
Overcast Overcast  
Wind Chill:   Ceiling: 800
Heat Index:   Visibility: 10mi
Dew Point:   Wind: 0mph
Humidity: 82%   Direction: NA
Pressure: 30.16"   Gusts: NA
Location:  34.54°N, 112.47°W
Report Text: KPRC 181653Z 00000KT 10SM BKN008 BKN022 OVC055 03/00 A3016 RMK AO2 SLP199 T00280000
Loading
Personal Weather Stations






























Interactive Weather Map New forecast layout! Learn more

10-Day Weather Forecast

Advertisements
Track Severe Weather on mobile